sensor_id;sensor_type;location;lat;lon;timestamp;P1;durP1;ratioP1;P2;durP2;ratioP2
67869;SDS011;54673;52.262;6.830;2023-03-16T00:00:41;1.63;;;0.70;;
67869;SDS011;54673;52.262;6.830;2023-03-16T00:03:07;1.38;;;0.90;;
67869;SDS011;54673;52.262;6.830;2023-03-16T00:05:43;1.33;;;0.90;;
67869;SDS011;54673;52.262;6.830;2023-03-16T00:08:10;1.40;;;0.73;;
67869;SDS011;54673;52.262;6.830;2023-03-16T00:10:36;1.63;;;1.10;;
67869;SDS011;54673;52.262;6.830;2023-03-16T00:13:02;1.30;;;0.90;;
67869;SDS011;54673;52.262;6.830;2023-03-16T00:15:28;1.75;;;0.80;;
67869;SDS011;54673;52.262;6.830;2023-03-16T00:17:53;1.40;;;0.80;;
67869;SDS011;54673;52.262;6.830;2023-03-16T00:20:19;1.57;;;1.03;;
67869;SDS011;54673;52.262;6.830;2023-03-16T00:22:45;1.40;;;0.93;;
67869;SDS011;54673;52.262;6.830;2023-03-16T00:25:11;1.13;;;0.93;;
67869;SDS011;54673;52.262;6.830;2023-03-16T00:27:41;1.30;;;1.17;;
67869;SDS011;54673;52.262;6.830;2023-03-16T00:30:06;1.00;;;0.80;;
67869;SDS011;54673;52.262;6.830;2023-03-16T00:32:33;1.40;;;0.90;;
67869;SDS011;54673;52.262;6.830;2023-03-16T00:35:00;1.47;;;1.10;;
67869;SDS011;54673;52.262;6.830;2023-03-16T00:37:28;1.10;;;1.00;;
67869;SDS011;54673;52.262;6.830;2023-03-16T00:39:54;1.00;;;0.90;;
67869;SDS011;54673;52.262;6.830;2023-03-16T00:42:20;1.65;;;1.20;;
67869;SDS011;54673;52.262;6.830;2023-03-16T00:44:57;1.40;;;0.80;;
67869;SDS011;54673;52.262;6.830;2023-03-16T00:47:27;1.23;;;0.80;;
67869;SDS011;54673;52.262;6.830;2023-03-16T00:49:55;1.80;;;0.70;;
67869;SDS011;54673;52.262;6.830;2023-03-16T00:52:20;0.93;;;0.83;;
67869;SDS011;54673;52.262;6.830;2023-03-16T00:54:48;1.00;;;0.85;;
67869;SDS011;54673;52.262;6.830;2023-03-16T00:57:15;1.85;;;0.80;;
67869;SDS011;54673;52.262;6.830;2023-03-16T00:59:45;1.23;;;0.93;;
67869;SDS011;54673;52.262;6.830;2023-03-16T01:02:12;1.07;;;0.90;;
67869;SDS011;54673;52.262;6.830;2023-03-16T01:04:39;1.67;;;0.80;;
67869;SDS011;54673;52.262;6.830;2023-03-16T01:07:09;1.30;;;0.80;;
67869;SDS011;54673;52.262;6.830;2023-03-16T01:09:37;1.00;;;0.80;;
67869;SDS011;54673;52.262;6.830;2023-03-16T01:12:04;1.95;;;0.90;;
67869;SDS011;54673;52.262;6.830;2023-03-16T01:14:32;1.50;;;0.80;;
67869;SDS011;54673;52.262;6.830;2023-03-16T01:17:01;1.77;;;0.77;;
67869;SDS011;54673;52.262;6.830;2023-03-16T01:19:28;0.98;;;0.70;;
67869;SDS011;54673;52.262;6.830;2023-03-16T01:21:54;1.33;;;0.80;;
67869;SDS011;54673;52.262;6.830;2023-03-16T01:24:20;1.30;;;0.87;;
67869;SDS011;54673;52.262;6.830;2023-03-16T01:26:48;1.27;;;0.88;;
67869;SDS011;54673;52.262;6.830;2023-03-16T01:29:13;1.00;;;0.70;;
67869;SDS011;54673;52.262;6.830;2023-03-16T01:31:39;1.13;;;0.85;;
67869;SDS011;54673;52.262;6.830;2023-03-16T01:34:04;1.20;;;0.80;;
67869;SDS011;54673;52.262;6.830;2023-03-16T01:36:30;1.33;;;0.80;;
67869;SDS011;54673;52.262;6.830;2023-03-16T01:38:56;1.33;;;0.80;;
67869;SDS011;54673;52.262;6.830;2023-03-16T01:41:23;1.23;;;0.80;;
67869;SDS011;54673;52.262;6.830;2023-03-16T01:43:50;1.80;;;0.60;;
67869;SDS011;54673;52.262;6.830;2023-03-16T01:46:20;1.60;;;0.90;;
67869;SDS011;54673;52.262;6.830;2023-03-16T01:48:59;1.02;;;0.68;;
67869;SDS011;54673;52.262;6.830;2023-03-16T01:51:41;0.80;;;0.80;;
67869;SDS011;54673;52.262;6.830;2023-03-16T01:54:12;1.60;;;0.90;;
67869;SDS011;54673;52.262;6.830;2023-03-16T01:59:35;1.00;;;0.80;;
67869;SDS011;54673;52.262;6.830;2023-03-16T02:02:01;1.90;;;0.90;;
67869;SDS011;54673;52.262;6.830;2023-03-16T02:07:00;1.00;;;0.90;;
67869;SDS011;54673;52.262;6.830;2023-03-16T02:09:28;0.97;;;0.80;;
67869;SDS011;54673;52.262;6.830;2023-03-16T02:11:54;1.77;;;0.90;;
67869;SDS011;54673;52.262;6.830;2023-03-16T02:14:21;1.20;;;0.80;;
67869;SDS011;54673;52.262;6.830;2023-03-16T02:16:49;1.70;;;1.10;;
67869;SDS011;54673;52.262;6.830;2023-03-16T02:19:19;1.13;;;1.00;;
67869;SDS011;54673;52.262;6.830;2023-03-16T02:22:03;2.03;;;1.17;;
67869;SDS011;54673;52.262;6.830;2023-03-16T02:24:31;1.20;;;1.10;;
67869;SDS011;54673;52.262;6.830;2023-03-16T02:26:58;2.47;;;0.97;;
67869;SDS011;54673;52.262;6.830;2023-03-16T02:29:40;1.17;;;1.08;;
67869;SDS011;54673;52.262;6.830;2023-03-16T02:32:12;0.80;;;0.77;;
67869;SDS011;54673;52.262;6.830;2023-03-16T02:34:40;1.10;;;0.97;;
67869;SDS011;54673;52.262;6.830;2023-03-16T02:37:06;1.33;;;0.90;;
67869;SDS011;54673;52.262;6.830;2023-03-16T02:39:32;1.13;;;0.70;;
67869;SDS011;54673;52.262;6.830;2023-03-16T02:41:59;1.87;;;0.77;;
67869;SDS011;54673;52.262;6.830;2023-03-16T02:44:26;2.20;;;0.90;;
67869;SDS011;54673;52.262;6.830;2023-03-16T02:46:59;1.10;;;0.93;;
67869;SDS011;54673;52.262;6.830;2023-03-16T02:49:35;0.90;;;0.80;;
67869;SDS011;54673;52.262;6.830;2023-03-16T02:52:04;1.55;;;1.10;;
67869;SDS011;54673;52.262;6.830;2023-03-16T02:54:30;1.13;;;0.90;;
67869;SDS011;54673;52.262;6.830;2023-03-16T02:56:56;1.00;;;0.90;;
67869;SDS011;54673;52.262;6.830;2023-03-16T02:59:21;1.53;;;0.90;;
67869;SDS011;54673;52.262;6.830;2023-03-16T03:01:47;1.10;;;0.90;;
67869;SDS011;54673;52.262;6.830;2023-03-16T03:04:12;1.10;;;0.83;;
67869;SDS011;54673;52.262;6.830;2023-03-16T03:06:38;2.63;;;1.15;;
67869;SDS011;54673;52.262;6.830;2023-03-16T03:09:05;1.20;;;0.90;;
67869;SDS011;54673;52.262;6.830;2023-03-16T03:11:33;1.02;;;0.90;;
67869;SDS011;54673;52.262;6.830;2023-03-16T03:13:58;1.00;;;0.90;;
67869;SDS011;54673;52.262;6.830;2023-03-16T03:16:24;1.17;;;1.07;;
67869;SDS011;54673;52.262;6.830;2023-03-16T03:18:49;1.47;;;0.83;;
67869;SDS011;54673;52.262;6.830;2023-03-16T03:21:16;1.55;;;0.82;;
67869;SDS011;54673;52.262;6.830;2023-03-16T03:23:42;1.00;;;1.00;;
67869;SDS011;54673;52.262;6.830;2023-03-16T03:26:10;1.20;;;0.90;;
67869;SDS011;54673;52.262;6.830;2023-03-16T03:28:36;1.80;;;1.20;;
67869;SDS011;54673;52.262;6.830;2023-03-16T03:31:02;1.87;;;0.90;;
67869;SDS011;54673;52.262;6.830;2023-03-16T03:33:27;1.08;;;0.80;;
67869;SDS011;54673;52.262;6.830;2023-03-16T03:35:56;1.57;;;0.60;;
67869;SDS011;54673;52.262;6.830;2023-03-16T03:38:23;1.30;;;1.00;;
67869;SDS011;54673;52.262;6.830;2023-03-16T03:40:50;1.15;;;0.95;;
67869;SDS011;54673;52.262;6.830;2023-03-16T03:43:17;1.00;;;0.90;;
67869;SDS011;54673;52.262;6.830;2023-03-16T03:45:42;1.10;;;0.80;;
67869;SDS011;54673;52.262;6.830;2023-03-16T03:48:08;1.13;;;0.70;;
67869;SDS011;54673;52.262;6.830;2023-03-16T03:50:34;1.07;;;0.97;;
67869;SDS011;54673;52.262;6.830;2023-03-16T03:52:59;1.00;;;0.77;;
67869;SDS011;54673;52.262;6.830;2023-03-16T03:55:25;0.70;;;0.60;;
67869;SDS011;54673;52.262;6.830;2023-03-16T03:57:50;1.43;;;0.90;;
67869;SDS011;54673;52.262;6.830;2023-03-16T04:00:16;2.15;;;0.90;;
67869;SDS011;54673;52.262;6.830;2023-03-16T04:02:46;1.23;;;0.77;;
67869;SDS011;54673;52.262;6.830;2023-03-16T04:05:12;2.17;;;0.93;;
67869;SDS011;54673;52.262;6.830;2023-03-16T04:07:37;1.00;;;0.90;;
67869;SDS011;54673;52.262;6.830;2023-03-16T04:10:04;1.00;;;0.90;;
67869;SDS011;54673;52.262;6.830;2023-03-16T04:12:30;1.58;;;0.90;;
67869;SDS011;54673;52.262;6.830;2023-03-16T04:14:55;1.20;;;1.10;;
67869;SDS011;54673;52.262;6.830;2023-03-16T04:17:21;1.00;;;0.80;;
67869;SDS011;54673;52.262;6.830;2023-03-16T04:19:47;1.27;;;0.80;;
67869;SDS011;54673;52.262;6.830;2023-03-16T04:22:13;1.20;;;0.82;;
67869;SDS011;54673;52.262;6.830;2023-03-16T04:24:39;0.73;;;0.60;;
67869;SDS011;54673;52.262;6.830;2023-03-16T04:27:07;1.20;;;0.70;;
67869;SDS011;54673;52.262;6.830;2023-03-16T04:29:33;1.08;;;0.75;;
67869;SDS011;54673;52.262;6.830;2023-03-16T04:31:59;1.73;;;0.87;;
67869;SDS011;54673;52.262;6.830;2023-03-16T04:34:24;0.82;;;0.77;;
67869;SDS011;54673;52.262;6.830;2023-03-16T04:36:50;1.33;;;0.80;;
67869;SDS011;54673;52.262;6.830;2023-03-16T04:39:17;1.15;;;0.80;;
67869;SDS011;54673;52.262;6.830;2023-03-16T04:41:43;2.20;;;1.00;;
67869;SDS011;54673;52.262;6.830;2023-03-16T04:44:09;1.70;;;0.70;;
67869;SDS011;54673;52.262;6.830;2023-03-16T04:46:35;1.45;;;0.80;;
67869;SDS011;54673;52.262;6.830;2023-03-16T04:49:00;1.40;;;0.90;;
67869;SDS011;54673;52.262;6.830;2023-03-16T04:51:26;1.15;;;0.82;;
67869;SDS011;54673;52.262;6.830;2023-03-16T04:53:53;2.20;;;1.10;;
67869;SDS011;54673;52.262;6.830;2023-03-16T04:56:18;0.80;;;0.80;;
67869;SDS011;54673;52.262;6.830;2023-03-16T04:58:45;1.13;;;1.03;;
67869;SDS011;54673;52.262;6.830;2023-03-16T05:01:11;1.70;;;1.10;;
67869;SDS011;54673;52.262;6.830;2023-03-16T05:03:37;1.33;;;0.90;;
67869;SDS011;54673;52.262;6.830;2023-03-16T05:06:03;3.17;;;1.10;;
67869;SDS011;54673;52.262;6.830;2023-03-16T05:08:29;1.42;;;0.90;;
67869;SDS011;54673;52.262;6.830;2023-03-16T05:10:57;1.20;;;0.90;;
67869;SDS011;54673;52.262;6.830;2023-03-16T05:13:23;1.58;;;1.10;;
67869;SDS011;54673;52.262;6.830;2023-03-16T05:15:49;1.20;;;1.10;;
67869;SDS011;54673;52.262;6.830;2023-03-16T05:18:18;2.10;;;1.30;;
67869;SDS011;54673;52.262;6.830;2023-03-16T05:20:53;1.33;;;1.00;;
67869;SDS011;54673;52.262;6.830;2023-03-16T05:23:22;2.15;;;1.00;;
67869;SDS011;54673;52.262;6.830;2023-03-16T05:25:48;1.37;;;1.20;;
67869;SDS011;54673;52.262;6.830;2023-03-16T05:28:15;1.20;;;0.90;;
67869;SDS011;54673;52.262;6.830;2023-03-16T05:30:41;0.95;;;0.82;;
67869;SDS011;54673;52.262;6.830;2023-03-16T05:33:08;1.13;;;0.90;;
67869;SDS011;54673;52.262;6.830;2023-03-16T05:35:34;1.10;;;0.90;;
67869;SDS011;54673;52.262;6.830;2023-03-16T05:38:00;2.13;;;0.83;;
67869;SDS011;54673;52.262;6.830;2023-03-16T05:40:26;1.20;;;1.00;;
67869;SDS011;54673;52.262;6.830;2023-03-16T05:42:55;1.05;;;0.80;;
67869;SDS011;54673;52.262;6.830;2023-03-16T05:45:22;1.00;;;0.87;;
67869;SDS011;54673;52.262;6.830;2023-03-16T05:47:48;0.90;;;0.77;;
67869;SDS011;54673;52.262;6.830;2023-03-16T05:50:14;1.40;;;0.90;;
67869;SDS011;54673;52.262;6.830;2023-03-16T05:52:41;1.93;;;1.27;;
67869;SDS011;54673;52.262;6.830;2023-03-16T05:55:08;0.90;;;0.70;;
67869;SDS011;54673;52.262;6.830;2023-03-16T05:57:34;1.80;;;1.10;;
67869;SDS011;54673;52.262;6.830;2023-03-16T06:00:01;1.10;;;0.70;;
67869;SDS011;54673;52.262;6.830;2023-03-16T06:02:37;0.95;;;0.85;;
67869;SDS011;54673;52.262;6.830;2023-03-16T06:05:02;1.23;;;0.75;;
67869;SDS011;54673;52.262;6.830;2023-03-16T06:07:28;1.00;;;0.70;;
67869;SDS011;54673;52.262;6.830;2023-03-16T06:09:54;1.35;;;0.70;;
67869;SDS011;54673;52.262;6.830;2023-03-16T06:12:19;1.10;;;0.67;;
67869;SDS011;54673;52.262;6.830;2023-03-16T06:14:45;1.60;;;0.80;;
67869;SDS011;54673;52.262;6.830;2023-03-16T06:17:10;0.93;;;0.80;;
67869;SDS011;54673;52.262;6.830;2023-03-16T06:19:36;1.17;;;0.90;;
67869;SDS011;54673;52.262;6.830;2023-03-16T06:22:01;2.33;;;1.00;;
67869;SDS011;54673;52.262;6.830;2023-03-16T06:24:27;1.92;;;1.00;;
67869;SDS011;54673;52.262;6.830;2023-03-16T06:26:52;0.97;;;0.80;;
67869;SDS011;54673;52.262;6.830;2023-03-16T06:29:18;1.10;;;0.73;;
67869;SDS011;54673;52.262;6.830;2023-03-16T06:31:44;1.50;;;0.70;;
67869;SDS011;54673;52.262;6.830;2023-03-16T06:34:09;1.50;;;1.10;;
67869;SDS011;54673;52.262;6.830;2023-03-16T06:36:35;1.42;;;1.27;;
67869;SDS011;54673;52.262;6.830;2023-03-16T06:39:03;1.97;;;1.07;;
67869;SDS011;54673;52.262;6.830;2023-03-16T06:41:29;1.10;;;1.00;;
67869;SDS011;54673;52.262;6.830;2023-03-16T06:43:55;1.20;;;1.10;;
67869;SDS011;54673;52.262;6.830;2023-03-16T06:46:21;1.37;;;1.00;;
67869;SDS011;54673;52.262;6.830;2023-03-16T06:48:46;1.23;;;0.73;;
67869;SDS011;54673;52.262;6.830;2023-03-16T06:51:12;1.77;;;1.17;;
67869;SDS011;54673;52.262;6.830;2023-03-16T06:53:38;0.93;;;0.90;;
67869;SDS011;54673;52.262;6.830;2023-03-16T06:56:03;1.37;;;1.00;;
67869;SDS011;54673;52.262;6.830;2023-03-16T06:58:29;1.30;;;1.00;;
67869;SDS011;54673;52.262;6.830;2023-03-16T07:00:55;1.03;;;0.90;;
67869;SDS011;54673;52.262;6.830;2023-03-16T07:03:20;1.00;;;0.82;;
67869;SDS011;54673;52.262;6.830;2023-03-16T07:05:46;1.10;;;0.93;;
67869;SDS011;54673;52.262;6.830;2023-03-16T07:08:12;1.17;;;1.07;;
67869;SDS011;54673;52.262;6.830;2023-03-16T07:10:39;1.20;;;1.10;;
67869;SDS011;54673;52.262;6.830;2023-03-16T07:13:04;0.95;;;0.93;;
67869;SDS011;54673;52.262;6.830;2023-03-16T07:15:30;1.27;;;1.10;;
67869;SDS011;54673;52.262;6.830;2023-03-16T07:17:56;1.10;;;1.00;;
67869;SDS011;54673;52.262;6.830;2023-03-16T07:20:21;1.07;;;0.80;;
67869;SDS011;54673;52.262;6.830;2023-03-16T07:22:47;1.88;;;1.08;;
67869;SDS011;54673;52.262;6.830;2023-03-16T07:25:13;1.30;;;1.10;;
67869;SDS011;54673;52.262;6.830;2023-03-16T07:27:38;1.67;;;1.08;;
67869;SDS011;54673;52.262;6.830;2023-03-16T07:30:05;0.83;;;0.80;;
67869;SDS011;54673;52.262;6.830;2023-03-16T07:32:32;1.30;;;0.80;;
67869;SDS011;54673;52.262;6.830;2023-03-16T07:34:58;1.10;;;1.00;;
67869;SDS011;54673;52.262;6.830;2023-03-16T07:37:24;1.13;;;1.02;;
67869;SDS011;54673;52.262;6.830;2023-03-16T07:39:50;1.20;;;1.03;;
67869;SDS011;54673;52.262;6.830;2023-03-16T07:42:16;1.30;;;1.00;;
67869;SDS011;54673;52.262;6.830;2023-03-16T07:44:42;1.67;;;0.90;;
67869;SDS011;54673;52.262;6.830;2023-03-16T07:47:08;1.77;;;1.10;;
67869;SDS011;54673;52.262;6.830;2023-03-16T07:49:36;1.17;;;0.85;;
67869;SDS011;54673;52.262;6.830;2023-03-16T07:52:02;1.20;;;1.10;;
67869;SDS011;54673;52.262;6.830;2023-03-16T07:54:28;1.08;;;0.80;;
67869;SDS011;54673;52.262;6.830;2023-03-16T07:56:53;1.00;;;0.90;;
67869;SDS011;54673;52.262;6.830;2023-03-16T07:59:19;1.08;;;0.85;;
67869;SDS011;54673;52.262;6.830;2023-03-16T08:01:45;1.00;;;0.90;;
67869;SDS011;54673;52.262;6.830;2023-03-16T08:04:10;1.00;;;0.75;;
67869;SDS011;54673;52.262;6.830;2023-03-16T08:06:36;0.90;;;0.73;;
67869;SDS011;54673;52.262;6.830;2023-03-16T08:09:02;1.33;;;0.80;;
67869;SDS011;54673;52.262;6.830;2023-03-16T08:11:28;0.93;;;0.90;;
67869;SDS011;54673;52.262;6.830;2023-03-16T08:13:53;1.15;;;0.73;;
67869;SDS011;54673;52.262;6.830;2023-03-16T08:16:21;0.90;;;0.73;;
67869;SDS011;54673;52.262;6.830;2023-03-16T08:18:50;1.20;;;1.10;;
67869;SDS011;54673;52.262;6.830;2023-03-16T08:21:16;1.00;;;0.90;;
67869;SDS011;54673;52.262;6.830;2023-03-16T08:23:43;1.05;;;0.95;;
67869;SDS011;54673;52.262;6.830;2023-03-16T08:26:13;1.23;;;1.10;;
67869;SDS011;54673;52.262;6.830;2023-03-16T08:28:43;0.90;;;0.90;;
67869;SDS011;54673;52.262;6.830;2023-03-16T08:31:10;1.10;;;1.00;;
67869;SDS011;54673;52.262;6.830;2023-03-16T08:33:36;1.90;;;0.90;;
67869;SDS011;54673;52.262;6.830;2023-03-16T08:36:04;1.00;;;0.90;;
67869;SDS011;54673;52.262;6.830;2023-03-16T08:38:30;1.13;;;1.00;;
67869;SDS011;54673;52.262;6.830;2023-03-16T08:40:57;1.37;;;1.10;;
67869;SDS011;54673;52.262;6.830;2023-03-16T08:43:24;1.67;;;1.00;;
67869;SDS011;54673;52.262;6.830;2023-03-16T08:45:51;2.30;;;0.90;;
67869;SDS011;54673;52.262;6.830;2023-03-16T08:48:17;1.13;;;0.80;;
67869;SDS011;54673;52.262;6.830;2023-03-16T08:50:44;0.77;;;0.65;;
67869;SDS011;54673;52.262;6.830;2023-03-16T08:53:11;1.33;;;0.80;;
67869;SDS011;54673;52.262;6.830;2023-03-16T08:55:38;1.65;;;0.70;;
67869;SDS011;54673;52.262;6.830;2023-03-16T08:58:05;2.10;;;1.08;;
67869;SDS011;54673;52.262;6.830;2023-03-16T09:00:32;0.77;;;0.60;;
67869;SDS011;54673;52.262;6.830;2023-03-16T09:02:57;0.90;;;0.75;;
67869;SDS011;54673;52.262;6.830;2023-03-16T09:05:24;0.80;;;0.80;;
67869;SDS011;54673;52.262;6.830;2023-03-16T09:07:50;1.25;;;0.80;;
67869;SDS011;54673;52.262;6.830;2023-03-16T09:10:18;1.20;;;1.10;;
67869;SDS011;54673;52.262;6.830;2023-03-16T09:12:47;1.10;;;0.93;;
67869;SDS011;54673;52.262;6.830;2023-03-16T09:15:16;1.20;;;1.02;;
67869;SDS011;54673;52.262;6.830;2023-03-16T09:17:43;1.20;;;1.10;;
67869;SDS011;54673;52.262;6.830;2023-03-16T09:20:10;1.30;;;0.98;;
67869;SDS011;54673;52.262;6.830;2023-03-16T09:22:37;1.10;;;0.90;;
67869;SDS011;54673;52.262;6.830;2023-03-16T09:25:03;1.10;;;0.73;;
67869;SDS011;54673;52.262;6.830;2023-03-16T09:27:30;1.00;;;1.00;;
67869;SDS011;54673;52.262;6.830;2023-03-16T09:29:57;0.97;;;0.80;;
67869;SDS011;54673;52.262;6.830;2023-03-16T09:32:29;1.20;;;1.10;;
67869;SDS011;54673;52.262;6.830;2023-03-16T09:34:55;1.63;;;0.87;;
67869;SDS011;54673;52.262;6.830;2023-03-16T09:37:21;3.85;;;1.08;;
67869;SDS011;54673;52.262;6.830;2023-03-16T09:39:47;2.40;;;1.10;;
67869;SDS011;54673;52.262;6.830;2023-03-16T09:42:17;2.15;;;1.05;;
67869;SDS011;54673;52.262;6.830;2023-03-16T09:45:29;4.20;;;0.80;;
67869;SDS011;54673;52.262;6.830;2023-03-16T09:48:26;1.67;;;1.30;;
67869;SDS011;54673;52.262;6.830;2023-03-16T09:50:54;3.05;;;0.90;;
67869;SDS011;54673;52.262;6.830;2023-03-16T09:53:29;5.30;;;1.00;;
67869;SDS011;54673;52.262;6.830;2023-03-16T09:56:06;1.65;;;1.27;;
67869;SDS011;54673;52.262;6.830;2023-03-16T09:58:36;5.07;;;0.73;;
67869;SDS011;54673;52.262;6.830;2023-03-16T10:06:26;1.45;;;0.90;;
67869;SDS011;54673;52.262;6.830;2023-03-16T10:11:48;3.45;;;1.08;;
67869;SDS011;54673;52.262;6.830;2023-03-16T10:14:22;4.10;;;0.90;;
67869;SDS011;54673;52.262;6.830;2023-03-16T10:16:58;1.75;;;0.70;;
67869;SDS011;54673;52.262;6.830;2023-03-16T10:19:32;3.00;;;1.00;;
67869;SDS011;54673;52.262;6.830;2023-03-16T10:22:08;10.63;;;1.30;;
67869;SDS011;54673;52.262;6.830;2023-03-16T10:27:34;2.85;;;0.90;;
67869;SDS011;54673;52.262;6.830;2023-03-16T10:30:03;3.33;;;0.90;;
67869;SDS011;54673;52.262;6.830;2023-03-16T10:32:43;2.10;;;1.00;;
67869;SDS011;54673;52.262;6.830;2023-03-16T10:35:26;8.27;;;0.93;;
67869;SDS011;54673;52.262;6.830;2023-03-16T10:37:56;5.70;;;1.00;;
67869;SDS011;54673;52.262;6.830;2023-03-16T10:40:22;9.57;;;1.10;;
67869;SDS011;54673;52.262;6.830;2023-03-16T10:42:48;6.90;;;1.23;;
67869;SDS011;54673;52.262;6.830;2023-03-16T10:45:27;6.30;;;1.50;;
67869;SDS011;54673;52.262;6.830;2023-03-16T10:50:53;7.80;;;1.00;;
67869;SDS011;54673;52.262;6.830;2023-03-16T10:53:28;4.68;;;0.90;;
67869;SDS011;54673;52.262;6.830;2023-03-16T10:55:59;3.83;;;1.60;;
67869;SDS011;54673;52.262;6.830;2023-03-16T10:58:38;5.27;;;1.00;;
67869;SDS011;54673;52.262;6.830;2023-03-16T11:01:25;9.68;;;0.98;;
67869;SDS011;54673;52.262;6.830;2023-03-16T11:03:53;19.42;;;0.90;;
67869;SDS011;54673;52.262;6.830;2023-03-16T11:08:54;16.88;;;1.08;;
67869;SDS011;54673;52.262;6.830;2023-03-16T11:11:30;22.10;;;2.65;;
67869;SDS011;54673;52.262;6.830;2023-03-16T11:13:58;22.23;;;1.37;;
67869;SDS011;54673;52.262;6.830;2023-03-16T11:16:39;11.05;;;1.38;;
67869;SDS011;54673;52.262;6.830;2023-03-16T11:19:26;12.35;;;1.15;;
67869;SDS011;54673;52.262;6.830;2023-03-16T11:24:43;11.55;;;1.08;;
67869;SDS011;54673;52.262;6.830;2023-03-16T11:27:45;16.93;;;1.30;;
67869;SDS011;54673;52.262;6.830;2023-03-16T11:32:53;15.02;;;1.42;;
67869;SDS011;54673;52.262;6.830;2023-03-16T11:38:16;10.32;;;1.10;;
67869;SDS011;54673;52.262;6.830;2023-03-16T11:46:08;14.10;;;1.23;;
67869;SDS011;54673;52.262;6.830;2023-03-16T11:51:33;10.77;;;1.20;;
67869;SDS011;54673;52.262;6.830;2023-03-16T11:57:24;16.43;;;1.20;;
67869;SDS011;54673;52.262;6.830;2023-03-16T12:11:32;5.30;;;0.93;;
67869;SDS011;54673;52.262;6.830;2023-03-16T12:13:44;8.30;;;1.40;;
67869;SDS011;54673;52.262;6.830;2023-03-16T12:16:43;11.40;;;1.50;;
67869;SDS011;54673;52.262;6.830;2023-03-16T12:20:04;8.48;;;1.20;;
67869;SDS011;54673;52.262;6.830;2023-03-16T12:22:28;5.43;;;1.27;;
67869;SDS011;54673;52.262;6.830;2023-03-16T12:25:01;6.50;;;1.67;;
67869;SDS011;54673;52.262;6.830;2023-03-16T12:27:30;2.30;;;1.00;;
67869;SDS011;54673;52.262;6.830;2023-03-16T12:30:02;14.88;;;1.30;;
67869;SDS011;54673;52.262;6.830;2023-03-16T12:32:47;2.55;;;1.10;;
67869;SDS011;54673;52.262;6.830;2023-03-16T12:46:49;4.93;;;1.10;;
67869;SDS011;54673;52.262;6.830;2023-03-16T12:49:17;1.83;;;0.80;;
67869;SDS011;54673;52.262;6.830;2023-03-16T12:51:45;1.83;;;1.05;;
67869;SDS011;54673;52.262;6.830;2023-03-16T12:54:19;6.78;;;1.25;;
67869;SDS011;54673;52.262;6.830;2023-03-16T12:56:48;3.80;;;1.20;;
67869;SDS011;54673;52.262;6.830;2023-03-16T12:59:16;4.38;;;0.98;;
67869;SDS011;54673;52.262;6.830;2023-03-16T13:01:47;3.67;;;1.15;;
67869;SDS011;54673;52.262;6.830;2023-03-16T13:04:15;5.33;;;1.30;;
67869;SDS011;54673;52.262;6.830;2023-03-16T13:06:48;4.07;;;1.10;;
67869;SDS011;54673;52.262;6.830;2023-03-16T13:09:22;5.03;;;1.30;;
67869;SDS011;54673;52.262;6.830;2023-03-16T13:11:52;5.68;;;1.15;;
67869;SDS011;54673;52.262;6.830;2023-03-16T13:14:35;2.60;;;1.10;;
67869;SDS011;54673;52.262;6.830;2023-03-16T13:19:41;3.40;;;1.38;;
67869;SDS011;54673;52.262;6.830;2023-03-16T13:24:54;12.18;;;2.03;;
67869;SDS011;54673;52.262;6.830;2023-03-16T13:27:26;5.00;;;1.20;;
67869;SDS011;54673;52.262;6.830;2023-03-16T13:29:58;1.97;;;1.03;;
67869;SDS011;54673;52.262;6.830;2023-03-16T13:32:29;6.72;;;1.00;;
67869;SDS011;54673;52.262;6.830;2023-03-16T13:34:57;5.32;;;1.45;;
67869;SDS011;54673;52.262;6.830;2023-03-16T13:37:26;4.50;;;1.07;;
67869;SDS011;54673;52.262;6.830;2023-03-16T13:40:00;3.97;;;1.20;;
67869;SDS011;54673;52.262;6.830;2023-03-16T13:42:29;6.60;;;1.10;;
67869;SDS011;54673;52.262;6.830;2023-03-16T13:44:56;4.28;;;1.17;;
67869;SDS011;54673;52.262;6.830;2023-03-16T13:47:24;3.17;;;1.08;;
67869;SDS011;54673;52.262;6.830;2023-03-16T13:49:58;5.10;;;1.07;;
67869;SDS011;54673;52.262;6.830;2023-03-16T13:54:54;2.85;;;1.45;;
67869;SDS011;54673;52.262;6.830;2023-03-16T13:57:26;2.43;;;1.27;;
67869;SDS011;54673;52.262;6.830;2023-03-16T14:00:00;11.20;;;1.60;;
67869;SDS011;54673;52.262;6.830;2023-03-16T14:02:29;3.43;;;1.20;;
67869;SDS011;54673;52.262;6.830;2023-03-16T14:04:55;5.87;;;1.30;;
67869;SDS011;54673;52.262;6.830;2023-03-16T14:07:20;5.43;;;1.13;;
67869;SDS011;54673;52.262;6.830;2023-03-16T14:09:48;8.70;;;1.10;;
67869;SDS011;54673;52.262;6.830;2023-03-16T14:12:16;5.00;;;0.98;;
67869;SDS011;54673;52.262;6.830;2023-03-16T14:14:47;4.17;;;1.60;;
67869;SDS011;54673;52.262;6.830;2023-03-16T14:17:19;2.33;;;1.20;;
67869;SDS011;54673;52.262;6.830;2023-03-16T14:22:21;2.67;;;1.10;;
67869;SDS011;54673;52.262;6.830;2023-03-16T14:24:53;8.05;;;1.42;;
67869;SDS011;54673;52.262;6.830;2023-03-16T14:35:28;4.17;;;1.00;;
67869;SDS011;54673;52.262;6.830;2023-03-16T14:40:57;1.53;;;1.10;;
67869;SDS011;54673;52.262;6.830;2023-03-16T14:43:29;2.30;;;0.90;;
67869;SDS011;54673;52.262;6.830;2023-03-16T14:45:57;3.45;;;1.10;;
67869;SDS011;54673;52.262;6.830;2023-03-16T14:48:23;3.20;;;1.17;;
67869;SDS011;54673;52.262;6.830;2023-03-16T14:50:53;4.15;;;1.10;;
67869;SDS011;54673;52.262;6.830;2023-03-16T14:53:22;3.42;;;1.00;;
67869;SDS011;54673;52.262;6.830;2023-03-16T14:55:53;6.93;;;1.10;;
67869;SDS011;54673;52.262;6.830;2023-03-16T14:58:19;4.38;;;1.52;;
67869;SDS011;54673;52.262;6.830;2023-03-16T15:00:45;10.70;;;1.63;;
67869;SDS011;54673;52.262;6.830;2023-03-16T15:03:11;5.17;;;1.10;;
67869;SDS011;54673;52.262;6.830;2023-03-16T15:05:41;2.25;;;1.00;;
67869;SDS011;54673;52.262;6.830;2023-03-16T15:08:13;11.63;;;1.47;;
67869;SDS011;54673;52.262;6.830;2023-03-16T15:10:42;7.15;;;1.30;;
67869;SDS011;54673;52.262;6.830;2023-03-16T15:13:12;6.50;;;1.38;;
67869;SDS011;54673;52.262;6.830;2023-03-16T15:15:48;14.10;;;1.53;;
67869;SDS011;54673;52.262;6.830;2023-03-16T15:18:14;11.55;;;1.42;;
67869;SDS011;54673;52.262;6.830;2023-03-16T15:20:40;8.17;;;1.00;;
67869;SDS011;54673;52.262;6.830;2023-03-16T15:23:09;4.25;;;1.20;;
67869;SDS011;54673;52.262;6.830;2023-03-16T15:25:39;12.57;;;1.00;;
67869;SDS011;54673;52.262;6.830;2023-03-16T15:30:43;3.05;;;1.20;;
67869;SDS011;54673;52.262;6.830;2023-03-16T15:33:11;9.07;;;1.07;;
67869;SDS011;54673;52.262;6.830;2023-03-16T15:35:37;5.17;;;0.90;;
67869;SDS011;54673;52.262;6.830;2023-03-16T15:38:05;2.35;;;1.10;;
67869;SDS011;54673;52.262;6.830;2023-03-16T15:41:00;3.97;;;1.00;;
67869;SDS011;54673;52.262;6.830;2023-03-16T15:43:26;3.37;;;1.13;;
67869;SDS011;54673;52.262;6.830;2023-03-16T15:45:54;2.28;;;1.30;;
67869;SDS011;54673;52.262;6.830;2023-03-16T15:48:21;2.07;;;1.00;;
67869;SDS011;54673;52.262;6.830;2023-03-16T15:53:26;5.78;;;0.90;;
67869;SDS011;54673;52.262;6.830;2023-03-16T15:56:02;5.47;;;1.10;;
67869;SDS011;54673;52.262;6.830;2023-03-16T15:58:30;5.75;;;1.13;;
67869;SDS011;54673;52.262;6.830;2023-03-16T16:00:58;1.33;;;1.00;;
67869;SDS011;54673;52.262;6.830;2023-03-16T16:03:24;5.23;;;1.23;;
67869;SDS011;54673;52.262;6.830;2023-03-16T16:05:51;2.75;;;0.70;;
67869;SDS011;54673;52.262;6.830;2023-03-16T16:08:17;1.43;;;0.90;;
67869;SDS011;54673;52.262;6.830;2023-03-16T16:10:44;2.97;;;1.02;;
67869;SDS011;54673;52.262;6.830;2023-03-16T16:13:12;3.30;;;0.80;;
67869;SDS011;54673;52.262;6.830;2023-03-16T16:15:50;5.30;;;0.90;;
67869;SDS011;54673;52.262;6.830;2023-03-16T16:20:54;3.38;;;0.80;;
67869;SDS011;54673;52.262;6.830;2023-03-16T16:23:21;5.53;;;1.03;;
67869;SDS011;54673;52.262;6.830;2023-03-16T16:25:47;3.53;;;1.00;;
67869;SDS011;54673;52.262;6.830;2023-03-16T16:28:18;3.42;;;1.10;;
67869;SDS011;54673;52.262;6.830;2023-03-16T16:30:46;2.83;;;1.03;;